createdAt,value
2017-12-16T00:01:35.133Z,12.27
2017-12-16T00:04:03.397Z,12.13
2017-12-16T00:06:31.640Z,11.73
2017-12-16T00:09:00.601Z,11.20
2017-12-16T00:11:28.860Z,11.50
2017-12-16T00:13:58.020Z,11.87
2017-12-16T00:16:26.291Z,11.70
2017-12-16T00:18:54.991Z,11.70
2017-12-16T00:21:23.231Z,11.63
2017-12-16T00:23:51.886Z,9.90
2017-12-16T00:26:20.143Z,10.47
2017-12-16T00:28:48.436Z,10.17
2017-12-16T00:31:16.665Z,9.97
2017-12-16T00:33:44.939Z,8.60
2017-12-16T00:36:13.555Z,9.37
2017-12-16T00:38:41.792Z,8.53
2017-12-16T00:41:10.105Z,9.43
2017-12-16T00:43:38.344Z,8.77
2017-12-16T00:46:06.582Z,9.60
2017-12-16T00:48:34.855Z,8.13
2017-12-16T00:51:03.108Z,7.70
2017-12-16T00:53:31.615Z,8.10
2017-12-16T00:55:59.888Z,7.80
2017-12-16T00:58:28.127Z,7.20
2017-12-16T01:00:56.372Z,7.87
2017-12-16T01:03:25.035Z,8.20
2017-12-16T01:05:53.291Z,7.70
2017-12-16T01:08:21.521Z,7.20
2017-12-16T01:10:49.777Z,7.67
2017-12-16T01:13:18.547Z,7.57
2017-12-16T01:15:47.060Z,7.13
2017-12-16T01:18:15.315Z,7.07
2017-12-16T01:20:43.948Z,6.90
2017-12-16T01:23:12.187Z,7.50
2017-12-16T01:25:40.862Z,6.40
2017-12-16T01:28:09.501Z,7.30
2017-12-16T01:30:38.176Z,6.23
2017-12-16T01:33:06.441Z,6.83
2017-12-16T01:35:46.748Z,6.40
2017-12-16T01:38:27.052Z,6.00
2017-12-16T01:40:55.283Z,5.57
2017-12-16T01:43:23.512Z,6.13
2017-12-16T01:45:51.760Z,6.20
2017-12-16T01:48:20.383Z,6.17
2017-12-16T01:50:48.620Z,6.27
2017-12-16T01:53:17.272Z,6.20
2017-12-16T01:55:45.496Z,6.20
2017-12-16T01:58:13.744Z,6.70
2017-12-16T02:00:42.420Z,5.77
2017-12-16T02:03:10.656Z,5.97
2017-12-16T02:05:38.887Z,6.17
2017-12-16T02:08:07.556Z,5.70
2017-12-16T02:10:35.784Z,6.40
2017-12-16T02:13:04.025Z,5.90
2017-12-16T02:15:32.689Z,5.67
2017-12-16T02:18:00.913Z,6.20
2017-12-16T02:20:29.158Z,5.73
2017-12-16T02:22:57.822Z,5.93
2017-12-16T02:25:26.055Z,5.50
2017-12-16T02:27:54.297Z,6.10
2017-12-16T02:30:22.941Z,5.70
2017-12-16T02:32:51.173Z,5.10
2017-12-16T02:35:19.408Z,6.10
2017-12-16T02:37:47.648Z,5.63
2017-12-16T02:40:15.924Z,5.87
2017-12-16T02:42:44.162Z,5.60
2017-12-16T02:45:12.824Z,5.47
2017-12-16T02:47:41.061Z,5.33
2017-12-16T02:50:09.298Z,5.27
2017-12-16T02:52:38.181Z,5.07
2017-12-16T02:55:06.812Z,4.80
2017-12-16T02:57:35.316Z,5.60
2017-12-16T03:00:03.637Z,5.47
2017-12-16T03:02:31.870Z,5.60
2017-12-16T03:05:00.100Z,4.87
2017-12-16T03:07:28.336Z,5.60
2017-12-16T03:09:56.566Z,5.63
2017-12-16T03:12:24.796Z,5.20
2017-12-16T03:14:53.447Z,5.30
2017-12-16T03:17:21.675Z,5.03
2017-12-16T03:19:49.910Z,5.00
2017-12-16T03:22:18.192Z,5.07
2017-12-16T03:24:46.420Z,5.00
2017-12-16T03:27:14.683Z,5.43
2017-12-16T03:29:42.946Z,4.90
2017-12-16T03:32:11.571Z,5.23
2017-12-16T03:34:39.804Z,5.13
2017-12-16T03:37:08.546Z,5.70
2017-12-16T03:39:36.759Z,4.87
2017-12-16T03:42:05.387Z,5.30
2017-12-16T03:44:33.644Z,5.30
2017-12-16T03:47:01.884Z,4.97
2017-12-16T03:49:30.752Z,4.70
2017-12-16T03:51:59.028Z,5.93
2017-12-16T03:54:27.256Z,4.87
2017-12-16T03:56:55.483Z,4.87
2017-12-16T03:59:23.764Z,5.20
2017-12-16T04:01:51.998Z,5.20
2017-12-16T04:04:20.233Z,5.50
2017-12-16T04:06:48.508Z,5.30
2017-12-16T04:09:17.131Z,5.77
2017-12-16T04:11:45.368Z,4.80
2017-12-16T04:14:14.054Z,5.10
2017-12-16T04:16:42.274Z,4.80
2017-12-16T04:19:10.500Z,5.07
2017-12-16T04:21:39.161Z,5.03
2017-12-16T04:24:07.401Z,5.33
2017-12-16T04:26:35.639Z,5.00
2017-12-16T04:29:04.299Z,4.90
2017-12-16T04:31:32.530Z,4.83
2017-12-16T04:34:00.772Z,4.60
2017-12-16T04:36:29.056Z,4.67
2017-12-16T04:38:57.683Z,5.07
2017-12-16T04:41:25.908Z,5.17
2017-12-16T04:43:54.560Z,5.30
2017-12-16T04:46:22.792Z,5.40
2017-12-16T04:48:51.020Z,4.93
2017-12-16T04:51:19.284Z,5.10
2017-12-16T04:53:47.535Z,5.10
2017-12-16T04:56:15.763Z,5.10
2017-12-16T04:58:44.425Z,5.10
2017-12-16T05:01:12.652Z,4.90
2017-12-16T05:03:40.884Z,5.20
2017-12-16T05:06:09.156Z,5.40
2017-12-16T05:08:37.387Z,5.00
2017-12-16T05:11:05.908Z,5.10
2017-12-16T05:13:34.177Z,4.90
2017-12-16T05:16:02.404Z,5.33
2017-12-16T05:18:30.634Z,5.00
2017-12-16T05:20:58.875Z,5.20
2017-12-16T05:23:27.393Z,5.17
2017-12-16T05:25:55.663Z,5.40
2017-12-16T05:28:23.897Z,5.47
2017-12-16T05:30:52.604Z,5.23
2017-12-16T05:33:21.112Z,5.03
2017-12-16T05:35:49.344Z,5.03
2017-12-16T05:38:17.584Z,5.07
2017-12-16T05:40:47.467Z,5.27
2017-12-16T05:43:15.684Z,4.77
2017-12-16T05:45:44.308Z,5.40
2017-12-16T05:48:12.579Z,5.10
2017-12-16T05:50:40.816Z,5.23
2017-12-16T05:53:09.456Z,5.37
2017-12-16T05:55:37.746Z,5.13
2017-12-16T05:58:05.976Z,4.97
2017-12-16T06:00:34.209Z,5.33
2017-12-16T06:03:02.451Z,5.00
2017-12-16T06:05:30.952Z,5.13
2017-12-16T06:07:59.248Z,4.87
2017-12-16T06:10:27.494Z,5.30
2017-12-16T06:12:56.181Z,4.80
2017-12-16T06:15:24.400Z,5.20
2017-12-16T06:17:54.030Z,5.00
2017-12-16T06:20:22.263Z,5.07
2017-12-16T06:22:51.027Z,5.23
2017-12-16T06:25:19.327Z,4.80
2017-12-16T06:27:47.510Z,5.43
2017-12-16T06:30:15.853Z,4.90
2017-12-16T06:32:44.096Z,4.43
2017-12-16T06:35:12.339Z,5.50
2017-12-16T06:37:41.004Z,4.97
2017-12-16T06:40:09.231Z,4.37
2017-12-16T06:42:37.468Z,4.57
2017-12-16T06:45:06.029Z,5.00
2017-12-16T06:47:34.300Z,5.03
2017-12-16T06:50:02.540Z,4.87
2017-12-16T06:52:30.824Z,5.10
2017-12-16T06:54:59.060Z,4.83
2017-12-16T06:57:27.687Z,4.70
2017-12-16T06:59:56.563Z,4.43
2017-12-16T07:02:24.788Z,4.80
2017-12-16T07:04:53.868Z,4.60
2017-12-16T07:07:22.109Z,4.47
2017-12-16T07:09:50.344Z,4.90
2017-12-16T07:12:18.574Z,5.13
2017-12-16T07:14:46.837Z,4.57
2017-12-16T07:17:15.432Z,4.57
2017-12-16T07:19:43.680Z,4.80
2017-12-16T07:22:12.131Z,4.73
2017-12-16T07:24:40.372Z,5.00
2017-12-16T07:27:08.616Z,4.63
2017-12-16T07:29:36.856Z,5.20
2017-12-16T07:32:05.088Z,5.17
2017-12-16T07:34:33.356Z,4.80
2017-12-16T07:37:01.589Z,5.00
2017-12-16T07:39:29.816Z,4.60
2017-12-16T07:41:58.143Z,4.63
2017-12-16T07:44:26.772Z,5.20
2017-12-16T07:46:55.016Z,5.37
2017-12-16T07:49:23.674Z,5.10
2017-12-16T07:51:51.914Z,4.63
2017-12-16T07:54:21.037Z,5.47
2017-12-16T07:56:49.289Z,4.57
2017-12-16T07:59:17.556Z,4.60
2017-12-16T08:01:45.799Z,5.03
2017-12-16T08:04:14.452Z,4.63
2017-12-16T08:06:42.690Z,5.20
2017-12-16T08:09:10.936Z,4.70
2017-12-16T08:11:39.579Z,5.70
2017-12-16T08:14:07.816Z,4.80
2017-12-16T08:16:36.056Z,4.67
2017-12-16T08:19:04.692Z,4.73
2017-12-16T08:21:33.825Z,5.10
2017-12-16T08:24:02.117Z,4.60
2017-12-16T08:26:30.348Z,5.23
2017-12-16T08:28:58.584Z,5.30
2017-12-16T08:31:26.880Z,5.20
2017-12-16T08:33:55.101Z,4.93
2017-12-16T08:36:23.747Z,4.90
2017-12-16T08:38:52.043Z,6.10
2017-12-16T08:41:20.306Z,5.63
2017-12-16T08:43:48.524Z,5.10
2017-12-16T08:46:17.184Z,5.67
2017-12-16T08:48:45.411Z,5.67
2017-12-16T08:51:13.652Z,6.10
2017-12-16T08:53:41.889Z,5.67
2017-12-16T08:56:10.154Z,5.77
2017-12-16T08:58:38.386Z,5.40
2017-12-16T09:01:07.295Z,5.30
2017-12-16T09:03:35.920Z,5.23
2017-12-16T09:06:04.157Z,5.80
2017-12-16T09:08:32.807Z,5.37
2017-12-16T09:11:01.083Z,5.37
2017-12-16T09:13:29.359Z,5.30
2017-12-16T09:15:57.586Z,5.70
2017-12-16T09:18:25.850Z,6.10
2017-12-16T09:20:54.502Z,5.53
2017-12-16T09:23:22.742Z,5.60
2017-12-16T09:25:50.986Z,6.20
2017-12-16T09:28:19.635Z,5.70
2017-12-16T09:30:47.874Z,5.30
2017-12-16T09:33:16.134Z,5.57
2017-12-16T09:35:44.432Z,5.63
2017-12-16T09:38:12.703Z,5.93
2017-12-16T09:40:40.931Z,5.70
2017-12-16T09:43:09.180Z,5.80
2017-12-16T09:45:37.411Z,5.63
2017-12-16T09:48:05.660Z,5.17
2017-12-16T09:50:34.294Z,5.97
2017-12-16T09:53:02.528Z,6.20
2017-12-16T09:55:30.830Z,5.63
2017-12-16T09:57:59.089Z,5.23
2017-12-16T10:00:27.336Z,5.37
2017-12-16T10:02:55.572Z,5.33
2017-12-16T10:05:23.849Z,5.90
2017-12-16T10:07:52.107Z,5.13
2017-12-16T10:10:20.344Z,4.87
2017-12-16T10:12:49.008Z,5.40
2017-12-16T10:15:17.584Z,5.47
2017-12-16T10:17:45.851Z,4.97
2017-12-16T10:20:14.108Z,5.23
2017-12-16T10:22:42.343Z,5.10
2017-12-16T10:25:10.984Z,5.20
2017-12-16T10:27:39.257Z,5.10
2017-12-16T10:30:07.484Z,5.13
2017-12-16T10:32:36.225Z,4.90
2017-12-16T10:35:04.485Z,5.00
2017-12-16T10:37:32.733Z,5.43
2017-12-16T10:40:02.572Z,5.77
2017-12-16T10:42:30.820Z,5.50
2017-12-16T10:44:59.359Z,5.53
2017-12-16T10:47:27.611Z,5.33
2017-12-16T10:49:55.853Z,5.73
2017-12-16T10:52:24.092Z,5.70
2017-12-16T10:54:52.398Z,5.70
2017-12-16T10:57:20.725Z,5.67
2017-12-16T10:59:48.952Z,5.40
2017-12-16T11:02:17.237Z,5.10
2017-12-16T11:04:45.478Z,5.50
2017-12-16T11:07:13.709Z,5.00
2017-12-16T11:09:41.987Z,4.80
2017-12-16T11:12:10.228Z,5.23
2017-12-16T11:14:38.496Z,4.90
2017-12-16T11:17:07.165Z,5.23
2017-12-16T11:19:35.400Z,5.20
2017-12-16T11:22:03.643Z,5.37
2017-12-16T11:24:32.295Z,5.20
2017-12-16T11:27:00.527Z,4.70
2017-12-16T11:29:29.064Z,5.20
2017-12-16T11:31:57.327Z,5.00
2017-12-16T11:34:25.572Z,5.90
2017-12-16T11:36:53.836Z,5.00
2017-12-16T11:39:22.143Z,5.50
2017-12-16T11:41:50.410Z,5.40
2017-12-16T11:44:18.637Z,5.30
2017-12-16T11:46:47.290Z,5.10
2017-12-16T11:49:15.776Z,5.60
2017-12-16T11:51:44.009Z,5.30
2017-12-16T11:54:12.405Z,5.27
2017-12-16T11:56:40.912Z,5.10
2017-12-16T11:59:09.148Z,5.50
2017-12-16T12:01:37.412Z,4.70
2017-12-16T12:04:05.654Z,4.63
2017-12-16T12:06:34.294Z,4.93
2017-12-16T12:09:02.681Z,4.53
2017-12-16T12:11:30.912Z,4.23
2017-12-16T12:13:59.160Z,4.10
2017-12-16T12:16:27.819Z,4.87
2017-12-16T12:18:56.078Z,4.17
2017-12-16T12:21:24.352Z,4.20
2017-12-16T12:23:52.621Z,4.60
2017-12-16T12:26:20.922Z,4.63
2017-12-16T12:28:49.585Z,4.60
2017-12-16T12:31:17.868Z,4.33
2017-12-16T12:33:46.108Z,4.33
2017-12-16T12:36:14.343Z,4.57
2017-12-16T12:38:42.699Z,4.73
2017-12-16T12:41:10.970Z,4.70
2017-12-16T12:43:39.205Z,5.03
2017-12-16T12:46:07.491Z,4.20
2017-12-16T12:48:35.732Z,4.67
2017-12-16T12:51:04.199Z,4.30
2017-12-16T12:53:32.461Z,4.00
2017-12-16T12:56:01.060Z,4.43
2017-12-16T12:58:29.324Z,4.57
2017-12-16T13:00:57.571Z,3.93
2017-12-16T13:03:25.808Z,4.50
2017-12-16T13:05:54.069Z,4.40
2017-12-16T13:08:22.426Z,4.30
2017-12-16T13:10:50.656Z,4.17
2017-12-16T13:13:18.879Z,4.50
2017-12-16T13:15:47.363Z,4.50
2017-12-16T13:18:15.609Z,4.27
2017-12-16T13:20:43.911Z,4.57
2017-12-16T13:23:12.145Z,4.40
2017-12-16T13:25:40.388Z,4.23
2017-12-16T13:28:08.664Z,4.40
2017-12-16T13:30:37.521Z,4.23
2017-12-16T13:33:06.017Z,5.03
2017-12-16T13:35:34.260Z,4.47
2017-12-16T13:38:02.500Z,4.80
2017-12-16T13:40:30.737Z,4.80
2017-12-16T13:42:58.992Z,4.90
2017-12-16T13:45:27.228Z,4.80
2017-12-16T13:47:55.870Z,4.93
2017-12-16T13:50:24.123Z,4.97
2017-12-16T13:52:52.420Z,5.03
2017-12-16T13:55:22.449Z,4.40
2017-12-16T13:57:50.752Z,4.80
2017-12-16T14:00:19.722Z,4.30
2017-12-16T14:02:47.955Z,4.60
2017-12-16T14:05:16.215Z,4.97
2017-12-16T14:07:44.446Z,4.47
2017-12-16T14:10:12.679Z,4.50
2017-12-16T14:12:40.920Z,5.00
2017-12-16T14:15:10.703Z,4.90
2017-12-16T14:17:39.817Z,4.80
2017-12-16T14:20:08.788Z,4.70
2017-12-16T14:22:37.025Z,4.27
2017-12-16T14:25:05.295Z,4.50
2017-12-16T14:27:33.556Z,4.70
2017-12-16T14:30:02.183Z,4.90
2017-12-16T14:32:30.438Z,4.33
2017-12-16T14:34:58.679Z,4.60
2017-12-16T14:37:27.307Z,4.63
2017-12-16T14:39:55.544Z,4.33
2017-12-16T14:42:24.506Z,4.33
2017-12-16T14:44:52.987Z,4.20
2017-12-16T14:47:21.249Z,4.80
2017-12-16T14:49:49.469Z,4.30
2017-12-16T14:52:18.133Z,4.10
2017-12-16T14:54:46.368Z,4.40
2017-12-16T14:57:14.654Z,4.37
2017-12-16T14:59:43.018Z,4.70
2017-12-16T15:02:11.288Z,4.43
2017-12-16T15:04:39.811Z,3.97
2017-12-16T15:07:08.083Z,4.00
2017-12-16T15:09:36.356Z,3.90
2017-12-16T15:12:04.615Z,4.40
2017-12-16T15:14:32.891Z,4.43
2017-12-16T15:17:01.125Z,4.00
2017-12-16T15:19:29.756Z,4.20
2017-12-16T15:21:58.000Z,4.20
2017-12-16T15:24:26.251Z,4.10
2017-12-16T15:26:54.528Z,3.80
2017-12-16T15:29:23.497Z,4.00
2017-12-16T15:31:51.719Z,4.23
2017-12-16T15:34:19.972Z,3.70
2017-12-16T15:36:48.719Z,4.10
2017-12-16T15:39:16.956Z,3.53
2017-12-16T15:41:45.200Z,3.80
2017-12-16T15:44:13.828Z,2.70
2017-12-16T15:46:42.076Z,3.10
2017-12-16T15:49:10.326Z,3.23
2017-12-16T15:51:38.969Z,3.10
2017-12-16T15:54:07.245Z,3.37
2017-12-16T15:56:35.486Z,3.43
2017-12-16T15:59:03.748Z,3.70
2017-12-16T16:01:32.395Z,3.60
2017-12-16T16:04:00.888Z,3.40
2017-12-16T16:06:29.135Z,3.70
2017-12-16T16:08:57.396Z,3.30
2017-12-16T16:11:25.640Z,3.30
2017-12-16T16:13:54.273Z,3.73
2017-12-16T16:16:22.507Z,3.50
2017-12-16T16:18:51.150Z,3.40
2017-12-16T16:21:19.393Z,3.60
2017-12-16T16:23:47.668Z,3.17
2017-12-16T16:26:15.918Z,3.43
2017-12-16T16:28:44.550Z,3.77
2017-12-16T16:31:12.796Z,3.40
2017-12-16T16:33:41.039Z,4.00
2017-12-16T16:36:09.276Z,3.57
2017-12-16T16:38:37.624Z,3.80
2017-12-16T16:41:05.856Z,3.57
2017-12-16T16:43:34.500Z,3.37
2017-12-16T16:46:02.760Z,15.77
2017-12-16T16:48:31.003Z,39.50
2017-12-16T16:50:59.645Z,64.43
2017-12-16T16:53:27.951Z,67.13
2017-12-16T16:55:56.218Z,47.50
2017-12-16T16:58:24.464Z,42.47
2017-12-16T17:00:52.752Z,41.80
2017-12-16T17:03:20.999Z,39.40
2017-12-16T17:05:49.317Z,37.70
2017-12-16T17:08:17.696Z,34.73
2017-12-16T17:10:45.927Z,35.43
2017-12-16T17:13:14.278Z,31.20
2017-12-16T17:15:42.565Z,27.90
2017-12-16T17:18:11.200Z,27.60
2017-12-16T17:20:39.444Z,25.70
2017-12-16T17:23:07.980Z,24.10
2017-12-16T17:25:36.219Z,24.37
2017-12-16T17:28:04.472Z,23.40
2017-12-16T17:30:33.114Z,21.97
2017-12-16T17:33:01.358Z,21.30
2017-12-16T17:35:29.649Z,19.50
2017-12-16T17:37:57.891Z,19.87
2017-12-16T17:40:26.133Z,18.13
2017-12-16T17:42:54.779Z,17.30
2017-12-16T17:45:23.020Z,16.93
2017-12-16T17:47:51.284Z,16.07
2017-12-16T17:50:19.923Z,16.27
2017-12-16T17:52:48.166Z,15.60
2017-12-16T17:55:16.490Z,15.07
2017-12-16T17:57:45.162Z,13.80
2017-12-16T18:00:13.411Z,13.97
2017-12-16T18:02:41.656Z,14.10
2017-12-16T18:05:10.293Z,13.80
2017-12-16T18:07:38.560Z,11.27
2017-12-16T18:10:07.099Z,12.73
2017-12-16T18:12:35.365Z,12.20
2017-12-16T18:15:04.053Z,12.30
2017-12-16T18:17:32.711Z,10.47
2017-12-16T18:20:00.952Z,10.77
2017-12-16T18:22:29.216Z,11.00
2017-12-16T18:24:57.460Z,10.40
2017-12-16T18:27:25.702Z,9.97
2017-12-16T18:29:53.983Z,9.40
2017-12-16T18:32:22.219Z,9.30
2017-12-16T18:34:50.533Z,9.27
2017-12-16T18:37:18.793Z,9.00
2017-12-16T18:39:47.038Z,8.20
2017-12-16T18:42:15.659Z,8.20
2017-12-16T18:44:43.919Z,7.83
2017-12-16T18:47:12.164Z,7.60
2017-12-16T18:49:40.408Z,7.80
2017-12-16T18:52:08.679Z,7.90
2017-12-16T18:54:36.917Z,7.50
2017-12-16T18:57:05.177Z,7.03
2017-12-16T18:59:33.447Z,6.87
2017-12-16T19:02:01.735Z,7.23
2017-12-16T19:04:29.971Z,11.13
2017-12-16T19:06:58.629Z,10.30
2017-12-16T19:09:26.863Z,9.93
2017-12-16T19:11:55.131Z,9.70
2017-12-16T19:14:23.387Z,9.60
2017-12-16T19:16:52.033Z,9.77
2017-12-16T19:19:20.340Z,8.73
2017-12-16T19:21:48.596Z,8.47
2017-12-16T19:24:16.822Z,7.90
2017-12-16T19:26:45.458Z,8.33
2017-12-16T19:29:13.685Z,7.90
2017-12-16T19:31:42.279Z,7.80
2017-12-16T19:34:10.808Z,7.40
2017-12-16T19:36:39.435Z,7.80
2017-12-16T19:39:07.704Z,7.10
2017-12-16T19:41:36.334Z,7.20
2017-12-16T19:44:04.581Z,6.60
2017-12-16T19:46:32.850Z,7.37
2017-12-16T19:49:01.087Z,6.90
2017-12-16T19:51:29.321Z,6.37
2017-12-16T19:53:57.585Z,6.60
2017-12-16T19:56:25.820Z,6.33
2017-12-16T19:58:54.450Z,6.30
2017-12-16T20:01:22.748Z,6.00
2017-12-16T20:03:50.992Z,6.00
2017-12-16T20:06:19.234Z,5.63
2017-12-16T20:08:48.311Z,5.33
2017-12-16T20:11:16.923Z,5.27
2017-12-16T20:13:45.139Z,5.47
2017-12-16T20:16:13.648Z,5.07
2017-12-16T20:18:41.892Z,5.30
2017-12-16T20:21:10.137Z,5.10
2017-12-16T20:23:38.892Z,5.03
2017-12-16T20:26:07.723Z,4.70
2017-12-16T20:28:36.020Z,4.83
2017-12-16T20:31:04.635Z,5.00
2017-12-16T20:33:32.876Z,4.40
2017-12-16T20:36:01.179Z,5.13
2017-12-16T20:38:29.409Z,4.77
2017-12-16T20:40:58.034Z,5.20
2017-12-16T20:43:26.320Z,4.80
2017-12-16T20:45:54.553Z,4.30
2017-12-16T20:48:22.869Z,4.43
2017-12-16T20:50:51.127Z,4.27
2017-12-16T20:53:19.359Z,4.17
2017-12-16T20:55:47.693Z,5.10
2017-12-16T20:58:15.924Z,4.20
2017-12-16T21:00:45.215Z,4.30
2017-12-16T21:03:13.595Z,4.00
2017-12-16T21:05:42.259Z,3.90
2017-12-16T21:08:10.892Z,4.50
2017-12-16T21:10:39.136Z,3.80
2017-12-16T21:13:08.131Z,3.40
2017-12-16T21:15:36.814Z,3.73
2017-12-16T21:18:05.437Z,4.10
2017-12-16T21:20:33.700Z,3.90
2017-12-16T21:23:01.968Z,4.60
2017-12-16T21:25:30.221Z,3.43
2017-12-16T21:27:58.858Z,3.97
2017-12-16T21:30:27.084Z,4.00
2017-12-16T21:32:55.732Z,3.73
2017-12-16T21:35:23.985Z,3.93
2017-12-16T21:37:52.219Z,3.80
2017-12-16T21:40:20.877Z,4.10
2017-12-16T21:42:49.460Z,4.37
2017-12-16T21:45:17.696Z,3.10
2017-12-16T21:47:46.044Z,3.40
2017-12-16T21:50:14.673Z,4.13
2017-12-16T21:52:42.913Z,3.60
2017-12-16T21:55:11.186Z,3.90
2017-12-16T21:57:39.421Z,3.80
2017-12-16T22:00:07.657Z,3.67
2017-12-16T22:02:35.918Z,3.40
2017-12-16T22:05:04.451Z,3.60
2017-12-16T22:07:32.690Z,3.70
2017-12-16T22:10:00.957Z,3.63
2017-12-16T22:12:29.192Z,3.90
2017-12-16T22:14:57.423Z,3.97
2017-12-16T22:17:25.692Z,3.70
2017-12-16T22:19:53.924Z,3.30
2017-12-16T22:22:22.174Z,3.30
2017-12-16T22:24:50.443Z,3.30
2017-12-16T22:27:19.230Z,2.87
2017-12-16T22:29:47.692Z,3.37
2017-12-16T22:32:15.899Z,3.07
2017-12-16T22:34:44.131Z,3.40
2017-12-16T22:37:12.367Z,3.00
2017-12-16T22:39:40.613Z,3.27
2017-12-16T22:42:08.857Z,3.10
2017-12-16T22:44:37.381Z,3.33
2017-12-16T22:47:05.660Z,3.00
2017-12-16T22:49:33.896Z,3.80
2017-12-16T22:52:02.124Z,3.00
2017-12-16T22:54:30.591Z,3.53
2017-12-16T22:56:59.724Z,2.63
2017-12-16T22:59:28.008Z,3.20
2017-12-16T23:01:56.953Z,3.00
2017-12-16T23:04:25.346Z,2.90
2017-12-16T23:06:53.603Z,2.80
2017-12-16T23:09:22.086Z,3.10
2017-12-16T23:11:50.597Z,2.77
2017-12-16T23:14:19.336Z,3.03
2017-12-16T23:16:47.571Z,2.97
2017-12-16T23:19:15.805Z,2.77
2017-12-16T23:21:44.064Z,2.93
2017-12-16T23:24:12.346Z,2.83
2017-12-16T23:26:40.564Z,3.30
2017-12-16T23:29:09.219Z,3.00
2017-12-16T23:31:37.479Z,2.70
2017-12-16T23:34:05.704Z,2.90
2017-12-16T23:36:34.153Z,2.40
2017-12-16T23:39:02.402Z,2.70
2017-12-16T23:41:30.632Z,3.00
2017-12-16T23:43:59.299Z,2.63
2017-12-16T23:46:27.528Z,2.37
2017-12-16T23:48:55.773Z,3.13
2017-12-16T23:51:24.448Z,2.60
2017-12-16T23:53:53.091Z,2.70
2017-12-16T23:56:21.324Z,2.77
2017-12-16T23:58:49.563Z,2.70
